Tropical Cyclones
[Index]
Main Index Home Page Stock Weather Photos Extreme Storms Discussion Storm News and Storm Chasing Reports Tropical Cyclones / Hurricanes / Typhoons Weather Data and Links Wild Fires / Bushfires Weather Observation Techniques Weather Picture Catalogue Tornado Pictures and Reports Stock Video Footage and DVDs for sale
Season 1981-1982 Tropical Cyclone IAN Track Map
Season 1981-1982 Summaries: [BoM-AU] [JTWC-AU] [JTWC-SIO] [JTWC-SPAC] [JTWC-SH]
<<- Previous TC | BoM 1981-1982 Season | Next TC ->>

click for intensity scale information  Lat/long Grid: Show Hide

 Date Labels: Show Hide

Bureau of Meteorology Tropical Cyclone Data

Name: IAN
Number: 632 / 198182_13

23 Feb 1982 03:00 UTC to 07 Mar 1982 18:00 UTC

    date/time    lat    long    hPa   cat  kts
1982-02-23 03   13.2   122.7   1006                     
1982-02-23 06   13.8   122.3   1004                     
1982-02-23 12   14.3   121.1   1002                     
1982-02-23 18   15.1   119.9   1001                     
1982-02-24 00   16.2   119.0   1001                     
1982-02-24 06   16.7   118.0   1001                     
1982-02-24 12   16.8   116.9   1001                     
1982-02-24 18   16.9   116.2   1000                     
1982-02-25 00   17.0   115.5   1000                     
1982-02-25 06   17.0   115.0   1000                     
1982-02-25 12   17.0   114.4   1000                     
1982-02-25 18   17.1   113.8   1000                     
1982-02-26 00   17.3   113.2    999                     
1982-02-26 06   18.2   112.6    999                     
1982-02-26 12   17.7   111.3    999                     
1982-02-26 18   17.1   111.1    999                     
1982-02-27 00   16.8   111.5    999                     
1982-02-27 06   16.8   112.1    999                     
1982-02-27 12   17.0   113.0    999                     
1982-02-27 18   17.2   113.7    999                     
1982-02-28 00   17.2   114.2    999                     
1982-02-28 06   17.3   115.2    999                     
1982-02-28 12   17.3   116.2    999                     
1982-02-28 18   17.3   116.7    999                     
1982-03-01 00   17.4   117.2    999                     
1982-03-01 06   17.6   117.7    999                     
1982-03-01 12   17.7   118.3    997                     
1982-03-01 18   17.5   118.7    995    1                
1982-03-02 00   17.1   119.4    993    1                
1982-03-02 03   16.9   119.7    992    1                
1982-03-02 06   16.6   119.9    991    1                
1982-03-02 09   16.5   120.3    990    1                
1982-03-02 12   16.4   120.7    989    1                
1982-03-02 15   16.4   121.1    988    1                
1982-03-02 18   16.4   121.4    987    1                
1982-03-02 21   16.5   121.7    986    1                
1982-03-03 00   16.6   121.9    985    2                
1982-03-03 03   16.7   121.9    984    2                
1982-03-03 06   16.8   122.0    983    2                
1982-03-03 09   16.9   122.0    982    2                
1982-03-03 12   17.2   122.0    981    2                
1982-03-03 15   17.3   121.7    980    2                
1982-03-03 18   17.4   121.4    976    2                
1982-03-03 21   17.6   121.0    972    2                
1982-03-04 00   17.8   120.6    968    3                
1982-03-04 03   18.0   120.1    964    3                
1982-03-04 06   18.3   119.5    964    3                
1982-03-04 09   18.5   119.0    964    3                
1982-03-04 12   18.5   118.5    964    3                
1982-03-04 15   18.6   118.0    964    3                
1982-03-04 18   18.8   117.6    964    3                
1982-03-04 21   19.0   117.1    964    3                
1982-03-05 00   19.3   116.8    964    3                
1982-03-05 03   19.5   116.4    964    3                
1982-03-05 06   19.7   115.8    965    3                
1982-03-05 09   19.9   115.0    966    3                
1982-03-05 12   20.1   114.8    967    3                
1982-03-05 15   20.2   114.6    968    3                
1982-03-05 18   20.4   114.3    970    3                
1982-03-05 21   20.7   114.2    972    2                
1982-03-06 00   21.0   114.1    976    2                
1982-03-06 03   21.5   114.1    980    2                
1982-03-06 06   21.9   114.0    984    2                
1982-03-06 09   22.5   113.8    988    1                
1982-03-06 12   23.2   113.7    992    1                
1982-03-06 15   23.5   113.8    996                     
1982-03-06 18   23.7   113.9    997                     
1982-03-06 21   23.8   114.0    998                     
1982-03-07 00   24.0   114.1    999                     
1982-03-07 03   24.1   114.2   1000                     
1982-03-07 06   24.2   114.3   1002                     
1982-03-07 09   24.3   114.6   1003                     
1982-03-07 12   24.3   114.8   1004                     
1982-03-07 15   24.4   115.0   1005                     
1982-03-07 18   24.5   115.5   1006                     
Winds are 10-min average.

Tropical cyclone tracks developed by Michael Bath using data from the Bureau of Meteorology and Google Maps.


[Australian Severe Weather index] [Copyright Notice] [Email Contacts] [Search This Site] [Privacy Policy]
Document: tropical_cyclone_ian.htm Updated: 30 May 2013